Time;durP1;ratioP1;P1;durP2;ratioP2;P2;SDS_P1;SDS_P2;PMS_P1;PMS_P2;Temp;Humidity;BMP_temperature;BMP_pressure;BME280_temperature;BME280_humidity;BME280_pressure;Samples;Min_cycle;Max_cycle;Signal;HPM_P1;HPM_P2
2022/07/07 00:02:08;;;;;;;6.00;2.75;;;21.60;99.90;;;;;;5093380;28;20481;-74
2022/07/07 00:04:33;;;;;;;4.72;2.70;;;21.60;99.90;;;;;;5093349;28;20024;-72
2022/07/07 00:06:59;;;;;;;3.22;2.63;;;21.50;99.90;;;;;;5093696;28;20369;-73
2022/07/07 00:09:26;;;;;;;2.90;2.50;;;21.50;99.90;;;;;;5093350;28;20023;-73
2022/07/07 00:11:51;;;;;;;3.90;2.20;;;21.40;99.90;;;;;;5093705;28;20028;-73
2022/07/07 00:14:17;;;;;;;2.50;2.10;;;21.40;99.90;;;;;;5092818;28;20039;-73
2022/07/07 00:16:43;;;;;;;4.32;2.25;;;21.40;99.90;;;;;;5093105;28;20024;-73
2022/07/07 00:19:09;;;;;;;3.05;2.25;;;21.30;99.90;;;;;;5091879;28;20455;-74
2022/07/07 00:21:34;;;;;;;3.95;2.78;;;21.30;99.90;;;;;;5090710;28;20020;-73
2022/07/07 00:24:00;;;;;;;3.03;2.00;;;21.30;99.90;;;;;;5092976;28;20063;-73
2022/07/07 00:26:26;;;;;;;3.10;2.22;;;21.30;99.90;;;;;;5088429;28;20078;-73
2022/07/07 00:28:52;;;;;;;3.55;2.60;;;21.40;99.90;;;;;;5092924;28;20024;-73
2022/07/07 00:31:17;;;;;;;2.70;2.17;;;21.30;99.90;;;;;;5092508;28;20043;-74
2022/07/07 00:33:44;;;;;;;4.72;2.50;;;21.30;99.90;;;;;;5093109;28;20026;-73
2022/07/07 00:36:09;;;;;;;4.45;2.10;;;21.30;99.90;;;;;;5092935;28;20028;-73
2022/07/07 00:38:35;;;;;;;5.55;2.70;;;21.30;99.90;;;;;;5093092;28;20016;-73
2022/07/07 00:41:01;;;;;;;4.30;2.67;;;21.20;99.90;;;;;;5093137;28;20028;-73
2022/07/07 00:43:27;;;;;;;2.72;2.28;;;21.20;99.90;;;;;;5091515;28;20020;-73
2022/07/07 00:45:53;;;;;;;2.55;2.25;;;21.20;99.90;;;;;;5092408;28;20492;-73
2022/07/07 00:48:20;;;;;;;6.28;3.03;;;21.10;99.90;;;;;;5093353;28;20025;-74
2022/07/07 00:50:47;;;;;;;4.13;2.88;;;21.10;99.90;;;;;;5092859;28;20020;-74
2022/07/07 00:53:13;;;;;;;3.42;2.80;;;21.10;99.90;;;;;;5093213;28;20020;-74
2022/07/07 00:55:39;;;;;;;4.53;2.28;;;21.10;99.90;;;;;;5079519;28;20163;-74
2022/07/07 00:58:06;;;;;;;2.92;2.38;;;21.10;99.90;;;;;;5071659;28;20032;-74
2022/07/07 01:00:32;;;;;;;3.22;2.45;;;21.20;99.90;;;;;;5072100;28;20548;-73
2022/07/07 01:02:58;;;;;;;4.82;2.80;;;21.10;99.90;;;;;;5078454;28;20024;-73
2022/07/07 01:05:25;;;;;;;4.18;2.53;;;21.10;99.90;;;;;;5092770;28;20024;-73
2022/07/07 01:07:52;;;;;;;5.15;3.33;;;21.10;99.90;;;;;;5093125;28;20103;-73
2022/07/07 01:10:17;;;;;;;3.97;2.80;;;21.10;99.90;;;;;;5091191;28;20115;-73
2022/07/07 01:12:43;;;;;;;4.70;3.05;;;21.10;99.90;;;;;;5093128;28;20091;-73
2022/07/07 01:15:12;;;;;;;3.78;3.20;;;21.20;99.90;;;;;;5092858;28;20028;-74
2022/07/07 01:17:38;;;;;;;4.65;2.60;;;21.20;99.90;;;;;;5093061;28;20093;-73
2022/07/07 01:20:07;;;;;;;5.85;3.17;;;21.20;99.90;;;;;;5089306;28;20020;-74
2022/07/07 01:22:37;;;;;;;3.72;2.70;;;21.20;99.90;;;;;;5092815;28;20032;-73
2022/07/07 01:25:04;;;;;;;2.80;2.60;;;21.10;99.90;;;;;;5091890;28;20123;-73
2022/07/07 01:27:30;;;;;;;3.58;3.28;;;21.00;99.90;;;;;;5092645;28;20118;-73
2022/07/07 01:29:57;;;;;;;2.80;2.60;;;20.90;99.90;;;;;;5094244;28;20054;-73
2022/07/07 01:32:23;;;;;;;5.60;2.67;;;21.00;99.90;;;;;;5093037;28;20469;-74
2022/07/07 01:34:50;;;;;;;5.47;3.00;;;21.00;99.90;;;;;;5092559;28;20472;-73
2022/07/07 01:37:17;;;;;;;3.70;3.22;;;21.00;99.90;;;;;;5092452;28;20024;-73
2022/07/07 01:39:43;;;;;;;8.88;3.25;;;20.90;99.90;;;;;;5093945;28;20095;-73
2022/07/07 01:42:10;;;;;;;4.57;3.25;;;20.90;99.90;;;;;;5096505;28;20028;-73
2022/07/07 01:44:37;;;;;;;3.45;2.97;;;21.00;99.90;;;;;;5096397;28;20475;-73
2022/07/07 01:47:04;;;;;;;4.43;2.90;;;21.00;99.90;;;;;;5096406;28;20107;-72
2022/07/07 01:49:31;;;;;;;3.28;2.70;;;21.00;99.90;;;;;;5096034;28;20031;-73
2022/07/07 01:51:57;;;;;;;4.60;3.38;;;20.90;99.90;;;;;;5096333;28;20044;-73
2022/07/07 01:54:24;;;;;;;3.53;3.10;;;20.90;99.90;;;;;;5096461;28;20383;-73
2022/07/07 01:56:49;;;;;;;5.95;3.53;;;21.00;99.90;;;;;;5085479;28;20055;-73
2022/07/07 01:59:15;;;;;;;4.47;3.40;;;20.90;99.90;;;;;;5096243;28;20032;-72
2022/07/07 02:01:41;;;;;;;6.20;3.50;;;20.90;99.90;;;;;;5095769;28;20418;-73
2022/07/07 02:04:06;;;;;;;4.65;3.58;;;20.90;99.90;;;;;;5095996;28;20028;-73
2022/07/07 02:06:32;;;;;;;4.00;3.22;;;20.80;99.90;;;;;;5096032;28;20023;-73
2022/07/07 02:08:58;;;;;;;5.70;3.67;;;20.80;99.90;;;;;;5094891;28;20384;-74
2022/07/07 02:11:25;;;;;;;7.75;3.28;;;20.90;99.90;;;;;;5095583;28;20047;-73
2022/07/07 02:13:52;;;;;;;5.38;2.92;;;20.90;99.90;;;;;;5096059;28;20028;-73
2022/07/07 02:16:20;;;;;;;4.38;2.65;;;21.00;99.90;;;;;;5095833;28;20385;-73
2022/07/07 02:18:46;;;;;;;8.85;3.30;;;21.00;99.90;;;;;;5095615;28;20453;-73
2022/07/07 02:21:14;;;;;;;5.32;3.47;;;21.00;99.90;;;;;;5095401;28;20031;-71
2022/07/07 02:23:44;;;;;;;5.53;3.40;;;21.10;99.90;;;;;;5093607;28;20020;-72
2022/07/07 02:26:11;;;;;;;5.80;3.30;;;21.00;99.90;;;;;;5095425;28;20036;-73
2022/07/07 02:28:38;;;;;;;5.05;3.55;;;21.00;99.90;;;;;;5095697;28;20111;-74
2022/07/07 02:31:05;;;;;;;5.30;3.10;;;21.00;99.90;;;;;;5095685;28;20513;-73
2022/07/07 02:33:30;;;;;;;6.20;3.67;;;20.90;99.90;;;;;;5095149;28;20028;-73
2022/07/07 02:35:57;;;;;;;7.40;2.90;;;20.90;99.90;;;;;;5095371;28;20024;-73
2022/07/07 02:38:23;;;;;;;5.35;3.42;;;20.90;99.90;;;;;;5095411;28;20061;-73
2022/07/07 02:40:49;;;;;;;8.82;3.78;;;20.90;99.90;;;;;;5095570;28;20412;-73
2022/07/07 02:43:15;;;;;;;7.43;4.25;;;20.80;99.90;;;;;;5095424;28;20036;-73
2022/07/07 02:45:45;;;;;;;5.18;3.63;;;20.90;99.90;;;;;;5095232;28;20028;-72
2022/07/07 02:48:13;;;;;;;4.57;3.55;;;20.80;99.90;;;;;;5074001;28;20503;-73
2022/07/07 02:50:39;;;;;;;5.10;3.30;;;20.70;99.90;;;;;;5094173;28;20085;-73
2022/07/07 02:53:06;;;;;;;5.07;3.70;;;20.80;99.90;;;;;;5095098;28;20013;-73
2022/07/07 02:55:31;;;;;;;6.25;3.28;;;20.80;99.90;;;;;;5095150;28;20441;-73
2022/07/07 02:57:58;;;;;;;5.20;3.15;;;20.90;99.90;;;;;;5095091;28;20020;-73
2022/07/07 03:00:24;;;;;;;6.20;3.45;;;20.90;99.90;;;;;;5088371;28;20032;-73
2022/07/07 03:02:50;;;;;;;5.57;3.55;;;20.90;99.90;;;;;;5094652;28;20031;-73
2022/07/07 03:05:15;;;;;;;4.57;3.50;;;20.90;99.90;;;;;;5093917;28;20032;-73
2022/07/07 03:07:41;;;;;;;5.38;3.63;;;20.90;99.90;;;;;;5094784;28;20043;-73
2022/07/07 03:10:08;;;;;;;7.25;3.88;;;20.80;99.90;;;;;;5093313;28;20126;-73
2022/07/07 03:12:34;;;;;;;6.53;3.30;;;20.80;99.90;;;;;;5094578;28;20032;-73
2022/07/07 03:15:00;;;;;;;4.30;3.42;;;20.80;99.90;;;;;;5093107;28;20365;-73
2022/07/07 03:17:26;;;;;;;5.88;3.20;;;20.70;99.90;;;;;;5094402;28;20431;-74
2022/07/07 03:19:51;;;;;;;5.43;3.10;;;20.70;99.90;;;;;;5094245;28;20457;-73
2022/07/07 03:22:17;;;;;;;3.60;2.97;;;20.70;99.90;;;;;;5094260;28;20022;-73
2022/07/07 03:24:43;;;;;;;6.63;3.20;;;20.70;99.90;;;;;;5075271;28;20032;-73
2022/07/07 03:27:09;;;;;;;4.78;3.22;;;20.80;99.90;;;;;;5092225;28;20054;-73
2022/07/07 03:29:35;;;;;;;7.88;3.45;;;20.70;99.90;;;;;;5094133;28;20472;-73
2022/07/07 03:32:00;;;;;;;6.47;3.13;;;20.70;99.90;;;;;;5094234;28;20040;-73
2022/07/07 03:34:26;;;;;;;4.82;2.90;;;20.70;99.90;;;;;;5092663;28;20418;-73
2022/07/07 03:36:52;;;;;;;6.38;3.10;;;20.70;99.90;;;;;;5093520;28;20027;-73
2022/07/07 03:39:18;;;;;;;6.32;3.30;;;20.60;99.90;;;;;;5093894;28;20504;-73
2022/07/07 03:41:43;;;;;;;9.20;3.47;;;20.70;99.90;;;;;;5094164;28;20020;-73
2022/07/07 03:44:09;;;;;;;5.43;3.17;;;20.70;99.90;;;;;;5095459;28;20024;-73
2022/07/07 03:46:34;;;;;;;4.63;3.20;;;20.60;99.90;;;;;;5093962;28;20016;-73
2022/07/07 03:49:00;;;;;;;4.25;3.15;;;20.60;99.90;;;;;;5093445;28;20028;-72
2022/07/07 03:51:26;;;;;;;7.95;3.35;;;20.60;99.90;;;;;;5094123;28;20551;-73
2022/07/07 03:53:51;;;;;;;7.32;3.63;;;20.50;99.90;;;;;;5093978;28;20023;-73
2022/07/07 03:56:17;;;;;;;4.35;3.13;;;20.50;99.90;;;;;;5093842;28;20028;-74
2022/07/07 03:58:43;;;;;;;6.07;3.65;;;20.60;99.90;;;;;;5093493;28;20473;-72
2022/07/07 04:01:08;;;;;;;4.00;3.15;;;20.60;99.90;;;;;;5093580;28;20115;-73
2022/07/07 04:03:34;;;;;;;6.78;4.22;;;20.60;99.90;;;;;;5092086;28;20468;-72
2022/07/07 04:06:00;;;;;;;6.60;4.05;;;20.60;99.90;;;;;;5093692;28;20451;-74
2022/07/07 04:08:25;;;;;;;5.35;3.70;;;20.50;99.90;;;;;;5093575;28;20020;-73
2022/07/07 04:10:51;;;;;;;7.93;4.60;;;20.40;99.90;;;;;;5092678;28;20031;-73
2022/07/07 04:13:17;;;;;;;5.28;4.07;;;20.40;99.90;;;;;;5093789;28;20030;-72
2022/07/07 04:15:43;;;;;;;5.47;4.10;;;20.50;99.90;;;;;;5093425;28;20461;-72
2022/07/07 04:18:08;;;;;;;6.40;4.22;;;20.40;99.90;;;;;;5093698;28;20027;-72
2022/07/07 04:20:34;;;;;;;6.30;4.47;;;20.40;99.90;;;;;;5093420;28;20107;-72
2022/07/07 04:23:00;;;;;;;4.43;2.97;;;20.40;99.90;;;;;;5092522;28;20035;-73
2022/07/07 04:25:26;;;;;;;6.50;4.25;;;20.40;99.90;;;;;;5092804;28;20481;-73
2022/07/07 04:27:51;;;;;;;6.00;2.17;;;20.30;99.90;;;;;;5092707;28;20474;-73
2022/07/07 04:30:17;;;;;;;2.75;1.50;;;20.20;99.90;;;;;;5092560;28;20024;-72
2022/07/07 04:32:42;;;;;;;1.50;1.40;;;20.20;99.90;;;;;;5092900;28;20024;-72
2022/07/07 04:35:09;;;;;;;2.25;1.42;;;20.20;99.90;;;;;;5093328;28;20102;-72
2022/07/07 04:37:34;;;;;;;3.55;1.58;;;20.20;99.90;;;;;;5093140;28;20099;-73
2022/07/07 04:40:00;;;;;;;2.22;1.60;;;20.30;99.90;;;;;;5092865;28;20108;-74
2022/07/07 04:42:26;;;;;;;3.17;1.67;;;20.10;99.90;;;;;;5093372;28;20024;-74
2022/07/07 04:44:51;;;;;;;2.78;1.98;;;20.10;99.90;;;;;;5092285;28;20024;-74
2022/07/07 04:47:17;;;;;;;1.80;1.65;;;20.10;99.90;;;;;;5091880;28;20058;-73
2022/07/07 04:49:43;;;;;;;2.10;1.90;;;20.00;99.90;;;;;;5092670;28;20059;-73
2022/07/07 04:52:08;;;;;;;2.63;2.30;;;20.00;99.90;;;;;;5093240;28;20032;-74
2022/07/07 04:54:34;;;;;;;4.32;2.35;;;20.00;99.90;;;;;;5088334;28;20483;-74
2022/07/07 04:57:00;;;;;;;3.25;2.70;;;20.00;99.90;;;;;;5077533;28;20035;-74
2022/07/07 04:59:25;;;;;;;4.60;2.53;;;20.10;99.90;;;;;;5092657;28;20595;-73
2022/07/07 05:01:51;;;;;;;3.38;2.55;;;20.10;99.90;;;;;;5092493;28;20028;-72
2022/07/07 05:04:16;;;;;;;2.47;2.17;;;20.00;99.90;;;;;;5092175;28;20024;-72
2022/07/07 05:06:42;;;;;;;3.53;2.10;;;20.10;99.90;;;;;;5092978;28;20086;-73
2022/07/07 05:09:09;;;;;;;3.67;2.38;;;19.90;99.90;;;;;;5093030;28;20028;-72
2022/07/07 05:11:35;;;;;;;3.60;2.30;;;20.00;99.90;;;;;;5091944;28;20028;-72
2022/07/07 05:14:01;;;;;;;3.47;2.30;;;20.00;99.90;;;;;;5094767;28;20070;-73
2022/07/07 05:16:28;;;;;;;4.90;2.60;;;19.90;99.90;;;;;;5097054;28;20024;-71
2022/07/07 05:18:54;;;;;;;2.45;2.25;;;19.90;99.90;;;;;;5096996;28;20103;-73
2022/07/07 05:21:19;;;;;;;3.92;2.83;;;19.90;99.90;;;;;;5094261;28;20126;-73
2022/07/07 05:23:45;;;;;;;3.47;2.50;;;19.90;99.90;;;;;;5096073;28;20021;-73
2022/07/07 05:26:10;;;;;;;3.05;1.88;;;19.90;99.90;;;;;;5096482;28;20032;-72
2022/07/07 05:28:41;;;;;;;3.40;2.30;;;19.70;99.90;;;;;;5096110;28;20396;-73
2022/07/07 05:31:08;;;;;;;2.20;2.00;;;19.70;99.90;;;;;;5095716;28;20043;-74
2022/07/07 05:33:33;;;;;;;4.07;1.95;;;19.60;99.90;;;;;;5096080;28;20016;-73
2022/07/07 05:35:59;;;;;;;2.17;1.88;;;19.50;99.90;;;;;;5096182;28;20024;-73
2022/07/07 05:38:25;;;;;;;4.18;2.22;;;19.60;99.90;;;;;;5096349;28;20088;-73
2022/07/07 05:40:50;;;;;;;3.20;2.28;;;19.50;99.90;;;;;;5095292;28;20024;-72
2022/07/07 05:43:16;;;;;;;5.28;2.33;;;19.60;99.90;;;;;;5096457;28;20027;-72
2022/07/07 05:45:41;;;;;;;2.30;2.10;;;19.60;99.90;;;;;;5096118;28;20024;-72
2022/07/07 05:48:07;;;;;;;2.78;2.25;;;19.60;99.90;;;;;;5096659;28;20578;-72
2022/07/07 05:50:33;;;;;;;2.00;1.80;;;19.60;99.90;;;;;;5095868;28;20063;-74
2022/07/07 05:52:58;;;;;;;2.65;1.50;;;19.70;99.90;;;;;;5095236;28;20108;-73
2022/07/07 05:55:24;;;;;;;4.93;1.83;;;19.60;99.90;;;;;;5095595;28;20028;-72
2022/07/07 05:57:49;;;;;;;3.75;1.77;;;19.70;99.90;;;;;;5095182;28;20035;-72
2022/07/07 06:00:16;;;;;;;5.43;1.70;;;19.70;99.90;;;;;;5096494;28;20024;-72
2022/07/07 06:02:41;;;;;;;3.45;1.40;;;19.60;99.90;;;;;;5095499;28;20508;-72
2022/07/07 06:05:07;;;;;;;3.13;1.02;;;19.60;99.90;;;;;;5096266;28;20115;-72
2022/07/07 06:07:33;;;;;;;2.78;1.48;;;19.60;99.90;;;;;;5095893;28;20023;-72
2022/07/07 06:09:59;;;;;;;4.32;1.20;;;19.50;99.90;;;;;;5095687;28;20016;-71
2022/07/07 06:12:24;;;;;;;2.33;1.45;;;19.60;99.90;;;;;;5095818;28;20093;-71
2022/07/07 06:14:50;;;;;;;2.47;1.30;;;19.60;99.90;;;;;;5096063;28;20027;-72
2022/07/07 06:17:15;;;;;;;4.60;1.20;;;19.60;99.90;;;;;;5095714;28;20039;-73
2022/07/07 06:19:41;;;;;;;1.80;1.58;;;19.50;99.90;;;;;;5095862;28;20093;-72
2022/07/07 06:22:07;;;;;;;4.10;1.70;;;19.50;99.90;;;;;;5095783;28;20031;-72
2022/07/07 06:24:32;;;;;;;1.58;1.23;;;19.60;99.90;;;;;;5093916;28;20063;-72
2022/07/07 06:26:58;;;;;;;5.88;2.00;;;19.70;99.90;;;;;;5094626;28;20374;-72
2022/07/07 06:29:23;;;;;;;5.63;2.00;;;19.50;99.90;;;;;;5095955;28;20528;-72
2022/07/07 06:31:49;;;;;;;3.83;1.58;;;19.70;99.90;;;;;;5094969;28;20089;-73
2022/07/07 06:34:15;;;;;;;3.65;2.15;;;19.80;99.90;;;;;;5092467;28;20024;-72
2022/07/07 06:36:40;;;;;;;4.30;1.90;;;19.60;99.90;;;;;;5078153;28;20085;-71
2022/07/07 06:39:06;;;;;;;5.00;2.17;;;19.60;99.90;;;;;;5074244;28;20464;-72
2022/07/07 06:41:36;;;;;;;3.88;2.30;;;19.60;99.90;;;;;;5090662;28;20032;-73
2022/07/07 06:44:06;;;;;;;8.80;1.88;;;19.50;99.90;;;;;;5091118;28;20067;-73
2022/07/07 06:46:32;;;;;;;4.57;1.38;;;19.50;99.90;;;;;;5074931;28;20043;-73
2022/07/07 06:48:58;;;;;;;5.63;1.05;;;19.40;99.90;;;;;;5073530;28;20461;-71
2022/07/07 06:51:24;;;;;;;5.40;1.08;;;19.30;99.90;;;;;;5074968;28;20028;-72
2022/07/07 06:53:49;;;;;;;2.53;1.10;;;19.30;99.90;;;;;;5075133;28;20024;-73
2022/07/07 06:56:15;;;;;;;2.80;1.48;;;19.30;99.90;;;;;;5094966;28;20040;-74
2022/07/07 06:58:41;;;;;;;1.90;1.20;;;19.30;99.90;;;;;;5094643;28;20032;-72
2022/07/07 07:01:06;;;;;;;7.13;1.58;;;19.50;99.90;;;;;;5094285;28;20026;-73
2022/07/07 07:03:32;;;;;;;6.43;1.80;;;19.60;99.90;;;;;;5094539;28;20067;-72
2022/07/07 07:05:58;;;;;;;5.65;1.73;;;19.60;99.90;;;;;;5094372;28;20358;-72
2022/07/07 07:08:23;;;;;;;5.75;1.85;;;19.70;99.90;;;;;;5094340;28;20389;-72
2022/07/07 07:10:49;;;;;;;6.03;1.98;;;19.70;99.90;;;;;;5087029;28;20039;-72
2022/07/07 07:13:15;;;;;;;8.38;2.20;;;19.80;99.90;;;;;;5074653;28;20082;-71
2022/07/07 07:15:41;;;;;;;8.52;1.67;;;19.80;99.90;;;;;;5073879;28;20659;-71
2022/07/07 07:18:06;;;;;;;4.97;1.73;;;19.90;99.90;;;;;;5074290;28;20020;-71
2022/07/07 07:20:32;;;;;;;7.93;2.03;;;20.00;99.90;;;;;;5086218;28;20478;-71
2022/07/07 07:22:58;;;;;;;10.32;1.85;;;20.00;99.90;;;;;;5093898;28;20028;-72
2022/07/07 07:25:24;;;;;;;5.65;1.90;;;20.20;99.90;;;;;;5094036;28;20084;-71
2022/07/07 07:27:49;;;;;;;6.90;1.73;;;20.20;99.90;;;;;;5094009;28;20472;-71
2022/07/07 07:30:15;;;;;;;6.90;1.35;;;20.10;99.90;;;;;;5094162;28;20023;-72
2022/07/07 07:32:41;;;;;;;7.55;1.67;;;20.00;99.90;;;;;;5093822;28;20028;-72
2022/07/07 07:35:07;;;;;;;3.33;1.13;;;19.90;99.90;;;;;;5093310;28;20160;-72
2022/07/07 07:37:33;;;;;;;6.13;1.13;;;19.80;99.90;;;;;;5092912;28;20110;-72
2022/07/07 07:39:59;;;;;;;7.68;1.58;;;19.90;99.90;;;;;;5086182;28;20032;-73
2022/07/07 07:42:24;;;;;;;9.00;1.77;;;20.10;99.90;;;;;;5090891;28;20024;-74
2022/07/07 07:47:34;;;;;;;3.50;1.20;;;20.40;99.90;;;;;;5094374;28;20027;-74
2022/07/07 07:50:00;;;;;;;6.32;1.70;;;20.60;99.90;;;;;;5094080;28;20028;-73
2022/07/07 07:52:25;;;;;;;8.52;1.35;;;20.60;99.90;;;;;;5093857;28;20081;-73
2022/07/07 07:54:51;;;;;;;7.80;1.63;;;20.70;99.90;;;;;;5093864;28;20032;-73
2022/07/07 07:57:17;;;;;;;8.00;1.77;;;20.90;99.90;;;;;;5093461;28;20036;-73
2022/07/07 07:59:42;;;;;;;7.38;1.42;;;20.90;99.90;;;;;;5093823;28;20468;-71
2022/07/07 08:02:08;;;;;;;4.57;1.45;;;21.00;99.90;;;;;;5094006;28;20052;-72
2022/07/07 08:04:34;;;;;;;5.28;1.58;;;21.00;99.90;;;;;;5093841;28;20028;-73
2022/07/07 08:06:59;;;;;;;6.63;1.42;;;21.00;99.90;;;;;;5093094;28;20032;-73
2022/07/07 08:09:26;;;;;;;7.85;1.48;;;20.90;99.90;;;;;;5091017;28;20028;-72
2022/07/07 08:11:52;;;;;;;8.23;1.30;;;20.80;99.90;;;;;;5093417;28;20401;-72
2022/07/07 08:14:18;;;;;;;6.65;1.55;;;20.70;99.90;;;;;;5092855;28;20085;-72
2022/07/07 08:16:44;;;;;;;5.90;1.70;;;20.70;99.90;;;;;;5088515;28;20537;-70
2022/07/07 08:19:09;;;;;;;5.95;1.30;;;20.60;99.90;;;;;;5082985;28;20479;-72
2022/07/07 08:21:36;;;;;;;5.15;1.33;;;20.50;99.90;;;;;;5073214;28;20031;-72
2022/07/07 08:24:01;;;;;;;4.55;1.60;;;20.40;99.90;;;;;;5072959;28;20016;-71
2022/07/07 08:26:27;;;;;;;3.67;1.33;;;20.30;99.90;;;;;;5078029;28;20373;-71
2022/07/07 08:28:53;;;;;;;7.78;1.77;;;20.20;99.90;;;;;;5093038;28;20032;-71
2022/07/07 08:31:19;;;;;;;6.82;1.63;;;20.10;99.90;;;;;;5093515;28;20468;-71
2022/07/07 08:33:44;;;;;;;4.43;1.65;;;20.10;99.90;;;;;;5093214;28;20032;-72
2022/07/07 08:36:10;;;;;;;5.63;1.52;;;20.20;99.90;;;;;;5090829;28;20028;-74
2022/07/07 08:38:36;;;;;;;8.90;1.33;;;20.20;99.90;;;;;;5091905;28;20028;-72
2022/07/07 08:41:01;;;;;;;8.20;1.63;;;20.30;99.90;;;;;;5092899;28;20016;-73
2022/07/07 08:43:29;;;;;;;4.68;1.75;;;20.50;99.90;;;;;;5091978;28;20024;-70
2022/07/07 08:45:54;;;;;;;6.07;1.58;;;20.60;99.90;;;;;;5091662;28;20080;-72
2022/07/07 08:48:21;;;;;;;6.03;1.45;;;20.80;99.90;;;;;;5102006;28;20024;-73
2022/07/07 08:50:46;;;;;;;3.92;1.15;;;21.00;99.90;;;;;;5090931;28;20032;-73
2022/07/07 08:53:13;;;;;;;5.68;1.17;;;21.30;99.90;;;;;;5083456;28;20030;-73
2022/07/07 08:55:41;;;;;;;4.68;1.48;;;21.60;99.90;;;;;;5092943;28;20020;-73
2022/07/07 08:58:09;;;;;;;5.20;1.45;;;21.70;99.90;;;;;;5092852;28;20047;-75
2022/07/07 09:00:35;;;;;;;4.55;1.33;;;21.60;99.90;;;;;;5091666;28;20471;-73
2022/07/07 09:03:03;;;;;;;8.32;1.55;;;21.60;99.90;;;;;;5091346;28;20099;-72
2022/07/07 09:05:37;;;;;;;5.30;1.70;;;21.60;99.90;;;;;;5092587;28;20103;-72
2022/07/07 09:08:17;;;;;;;4.97;1.33;;;21.40;99.90;;;;;;5092925;28;20449;-74
2022/07/07 09:10:44;;;;;;;7.75;1.40;;;21.30;99.90;;;;;;5092819;28;20017;-72
2022/07/07 09:13:32;;;;;;;3.85;1.00;;;21.20;99.90;;;;;;5093110;28;20036;-72
2022/07/07 09:16:01;;;;;;;2.75;0.90;;;21.00;99.90;;;;;;5090547;28;20511;-71
2022/07/07 09:18:35;;;;;;;4.43;0.88;;;20.90;99.90;;;;;;5084173;28;20471;-71
2022/07/07 09:21:25;;;;;;;3.70;1.00;;;20.90;99.90;;;;;;5082139;28;20035;-71
2022/07/07 09:23:53;;;;;;;4.38;1.30;;;20.90;99.90;;;;;;5073941;28;20139;-71
2022/07/07 09:26:41;;;;;;;12.00;1.50;;;21.00;99.90;;;;;;5083445;28;20099;-72
2022/07/07 09:29:13;;;;;;;7.28;1.20;;;21.20;99.90;;;;;;5083455;28;20024;-72
2022/07/07 09:31:59;;;;;;;4.65;1.02;;;21.40;99.90;;;;;;5084584;28;20023;-72
2022/07/07 09:34:30;;;;;;;4.75;1.20;;;21.30;99.90;;;;;;5083811;28;20025;-71
2022/07/07 09:39:54;;;;;;;3.00;0.90;;;21.70;99.90;;;;;;5091613;28;20129;-72
2022/07/07 09:42:20;;;;;;;3.10;1.08;;;21.60;99.90;;;;;;5081898;28;20028;-70
2022/07/07 09:44:51;;;;;;;3.22;0.98;;;21.50;99.90;;;;;;5083282;28;20020;-71
2022/07/07 09:47:18;;;;;;;4.75;1.45;;;21.40;99.90;;;;;;5071600;28;20025;-71
2022/07/07 09:50:00;;;;;;;2.38;1.20;;;21.20;99.90;;;;;;5072414;28;20090;-71
2022/07/07 09:52:26;;;;;;;3.73;1.20;;;21.10;99.90;;;;;;5072331;28;20461;-71
2022/07/07 09:54:52;;;;;;;3.78;0.70;;;21.10;99.90;;;;;;5074035;28;20020;-71
2022/07/07 09:57:18;;;;;;;3.00;0.93;;;21.10;99.90;;;;;;5092091;28;20453;-72
2022/07/07 09:59:45;;;;;;;5.03;1.48;;;21.20;99.90;;;;;;5092278;28;20030;-72
2022/07/07 10:02:29;;;;;;;5.40;0.93;;;21.20;99.90;;;;;;5082655;28;20063;-72
2022/07/07 10:04:57;;;;;;;1.85;0.93;;;21.50;99.90;;;;;;5095116;28;20020;-73
2022/07/07 10:07:29;;;;;;;3.47;1.13;;;21.90;99.90;;;;;;5095627;28;20464;-73
2022/07/07 10:10:03;;;;;;;3.70;1.10;;;21.90;99.90;;;;;;5096341;28;20350;-72
2022/07/07 10:12:29;;;;;;;3.55;1.10;;;21.80;99.90;;;;;;5094061;28;20028;-72
2022/07/07 10:15:12;;;;;;;4.70;1.33;;;21.70;99.90;;;;;;5096079;28;20065;-72
2022/07/07 10:17:39;;;;;;;;;;;21.50;99.90;;;;;;5096113;28;20035;-73
2022/07/07 10:20:05;;;;;;;5.43;0.88;;;21.30;99.90;;;;;;5096124;28;19908;-72
2022/07/07 10:22:31;;;;;;;4.00;0.88;;;21.20;99.90;;;;;;5095391;28;20028;-72
2022/07/07 10:24:59;;;;;;;4.45;1.10;;;21.20;99.90;;;;;;5093747;28;20479;-71
2022/07/07 10:27:27;;;;;;;4.65;1.33;;;21.10;99.90;;;;;;5095206;28;20024;-71
2022/07/07 10:29:55;;;;;;;5.47;0.77;;;21.00;99.90;;;;;;5095883;28;20020;-71
2022/07/07 10:32:41;;;;;;;5.28;1.30;;;21.10;99.90;;;;;;5095047;28;20396;-71
2022/07/07 10:35:13;;;;;;;5.00;1.35;;;21.10;99.90;;;;;;5095690;28;20038;-70
2022/07/07 10:37:48;;;;;;;4.32;0.88;;;21.00;99.90;;;;;;5094421;28;20012;-72
2022/07/07 10:40:34;;;;;;;3.05;0.88;;;21.00;99.90;;;;;;5075066;28;20112;-72
2022/07/07 10:43:24;;;;;;;4.38;0.90;;;21.00;99.90;;;;;;5074640;28;20044;-71
2022/07/07 10:45:53;;;;;;;4.25;0.90;;;21.20;99.90;;;;;;5074744;28;20025;-72
2022/07/07 10:48:44;;;;;;;2.85;0.82;;;21.40;99.90;;;;;;5087305;28;20027;-71
2022/07/07 10:51:23;;;;;;;3.47;1.00;;;21.50;99.90;;;;;;5094858;28;20438;-70
2022/07/07 10:53:55;;;;;;;3.58;1.20;;;21.60;99.90;;;;;;5094913;28;20032;-70
2022/07/07 10:56:21;;;;;;;2.80;0.93;;;21.80;99.90;;;;;;5094886;28;20040;-71
2022/07/07 10:58:53;;;;;;;5.53;0.70;;;21.90;99.90;;;;;;5094905;28;20031;-70
2022/07/07 11:01:20;;;;;;;6.60;1.05;;;21.80;99.90;;;;;;5094625;28;20032;-71
2022/07/07 11:03:45;;;;;;;1.85;0.70;;;21.80;99.90;;;;;;5093758;28;20099;-72
2022/07/07 11:06:11;;;;;;;2.83;0.85;;;21.90;99.90;;;;;;5094936;28;20055;-72
2022/07/07 11:08:38;;;;;;;4.18;1.10;;;21.70;99.90;;;;;;5094757;28;20024;-73
2022/07/07 11:11:05;;;;;;;3.97;0.75;;;21.60;99.90;;;;;;5094425;28;20032;-72
2022/07/07 11:13:39;;;;;;;5.63;0.88;;;21.60;99.90;;;;;;5094182;28;20512;-72
2022/07/07 11:16:21;;;;;;;4.50;0.85;;;21.60;99.90;;;;;;5103160;28;20052;-73
2022/07/07 11:18:56;;;;;;;2.47;0.60;;;21.70;99.90;;;;;;5097641;28;20027;-73
2022/07/07 11:21:43;;;;;;;2.83;0.70;;;21.90;99.90;;;;;;5094583;28;20081;-72
2022/07/07 11:24:21;;;;;;;3.03;0.70;;;22.00;99.90;;;;;;5094368;28;20016;-72
2022/07/07 11:27:03;;;;;;;3.58;1.00;;;22.10;99.90;;;;;;5094169;28;20024;-73
2022/07/07 11:29:31;;;;;;;4.35;1.00;;;22.20;99.90;;;;;;5094362;28;20032;-73
2022/07/07 11:32:08;;;;;;;1.77;0.85;;;22.10;99.90;;;;;;5094230;28;20031;-74
2022/07/07 11:34:48;;;;;;;2.83;1.45;;;22.00;99.90;;;;;;5094185;28;20034;-72
2022/07/07 11:37:21;;;;;;;4.40;1.35;;;21.90;99.90;;;;;;5094625;28;20024;-72
2022/07/07 11:39:47;;;;;;;1.88;1.02;;;22.00;99.90;;;;;;5094099;28;20103;-72
2022/07/07 11:42:13;;;;;;;3.92;0.88;;;22.00;99.90;;;;;;5093676;28;20480;-72
2022/07/07 11:44:38;;;;;;;4.72;1.10;;;21.90;99.90;;;;;;5093718;28;20035;-73
2022/07/07 11:47:04;;;;;;;3.47;1.33;;;22.00;99.90;;;;;;5093704;28;20031;-72
2022/07/07 11:49:30;;;;;;;4.13;1.50;;;22.10;99.90;;;;;;5093910;28;20493;-72
2022/07/07 11:51:56;;;;;;;4.88;1.70;;;22.20;99.90;;;;;;5094050;28;20024;-73
2022/07/07 11:54:22;;;;;;;3.30;1.20;;;22.40;99.90;;;;;;5093680;28;20031;-73
2022/07/07 11:56:48;;;;;;;4.68;1.67;;;22.40;99.90;;;;;;5092478;28;20387;-73
2022/07/07 11:59:13;;;;;;;2.22;1.52;;;22.50;99.90;;;;;;5083669;28;20035;-71
2022/07/07 12:01:43;;;;;;;4.82;1.55;;;22.50;99.90;;;;;;5073414;28;20108;-75
2022/07/07 12:04:20;;;;;;;4.20;1.48;;;22.60;99.90;;;;;;5082729;28;20104;-74
2022/07/07 12:06:46;;;;;;;5.25;1.70;;;22.50;99.90;;;;;;5093683;28;20099;-74
2022/07/07 12:09:12;;;;;;;5.80;1.50;;;22.30;99.90;;;;;;5073630;28;20032;-72
2022/07/07 12:11:39;;;;;;;4.63;1.30;;;22.20;99.90;;;;;;5073170;28;20146;-73
2022/07/07 12:14:07;;;;;;;7.35;1.95;;;22.10;99.90;;;;;;5073286;28;20043;-74
2022/07/07 12:16:47;;;;;;;2.78;1.70;;;21.90;99.90;;;;;;5073327;28;20525;-75
2022/07/07 12:19:13;;;;;;;4.47;1.55;;;21.50;99.90;;;;;;5091834;28;20032;-73
2022/07/07 12:21:46;;;;;;;5.15;1.80;;;21.40;99.90;;;;;;5093539;28;20480;-75
2022/07/07 12:24:22;;;;;;;3.88;1.70;;;21.40;99.90;;;;;;5092334;28;20036;-77
2022/07/07 12:26:50;;;;;;;3.20;1.63;;;21.20;99.90;;;;;;5093065;28;20131;-76
2022/07/07 12:29:20;;;;;;;5.68;1.50;;;21.00;99.90;;;;;;5083776;28;20033;-75
2022/07/07 12:31:48;;;;;;;6.18;1.70;;;20.90;99.90;;;;;;5073224;28;20028;-74
2022/07/07 12:34:22;;;;;;;6.63;1.70;;;20.80;99.90;;;;;;5078510;28;20021;-76
2022/07/07 12:36:49;;;;;;;4.00;1.77;;;21.10;99.90;;;;;;5093308;28;20024;-74
2022/07/07 12:39:14;;;;;;;2.95;1.77;;;21.30;99.90;;;;;;5093028;28;20026;-73
2022/07/07 12:41:41;;;;;;;6.20;2.05;;;21.50;99.90;;;;;;5093293;28;20392;-75
2022/07/07 12:44:30;;;;;;;4.88;1.80;;;21.60;99.90;;;;;;5093616;28;20017;-75
2022/07/07 12:46:58;;;;;;;5.35;1.52;;;21.80;99.90;;;;;;5092435;28;20039;-74
2022/07/07 12:49:24;;;;;;;4.47;1.80;;;22.00;99.90;;;;;;5092601;28;20028;-76
2022/07/07 12:51:51;;;;;;;4.55;2.17;;;22.10;99.90;;;;;;5085544;28;20028;-74
2022/07/07 12:54:26;;;;;;;7.90;2.45;;;22.10;99.90;;;;;;5072776;28;20025;-74
2022/07/07 12:57:04;;;;;;;4.28;1.50;;;22.20;99.90;;;;;;5080700;28;20039;-74